Calvin, OK (74531)

6:41 AM CDT on August 28, 2014 (GMT -0500)
Horntown OK | Change Station
CLOSE
Current Station
Personal Weather Station
Location: Holdenville, OK
Elevation: 827 ft
Nearby Weather Stations

Elev 827 ft 35.08 °N, 96.26 °W | Updated 11 minutes ago

Clear
Clear
68.5 °F
Feels Like 68.5 °F
N
2.7
Wind Variable Wind from SSW

Today
High -- | Low -- °F
--% Chance of Precip.
Yesterday
High -- | Low -- °F
Precip. -- in
6:55 AM 7:56 PM
Waxing Crescent, 8% visible
Pressure 29.99 in
Visibility 10.0 miles
Clouds Clear
Dew Point 67 °F
Humidity 96%
Rainfall 0.00 in
Snow Depth Not available.
UV 0 out of 12
Pollen 10.20 out of 12
Air Quality Not available.
Flu Activity Not available.
METAR KADH 281135Z AUTO 14006KT 10SM CLR 20/20 A2999 RMK AO2

More Conditions Fewer Conditions

Pressure 29.99 in
Visibility 10.0 miles
Clouds Clear
Dew Point 67 °F
Humidity 96%
Rainfall 0.00 in
Snow Depth Not available.
UV 0 out of 12
Pollen 10.20 out of 12
Air Quality Not available.
Flu Activity Not available.
METAR KADH 281135Z AUTO 14006KT 10SM CLR 20/20 A2999 RMK AO2

More Conditions Fewer Conditions

10-Day Weather Forecast

Almanac

Astronomy

Aug. 28, 2014 Rise Set
Actual Time 6:55 AM CDT 7:56 PM CDT
Civil Twilight 6:29 AM CDT 8:22 PM CDT
Nautical Twilight 5:58 AM CDT 8:53 PM CDT
Astronomical Twilight 5:26 AM CDT 9:25 PM CDT
Moon 9:40 AM CDT 9:31 PM CDT
Length of Visible Light 13h 53m
Length of Day
13h 01m
Tomorrow will be 2m 3s shorter.
Waxing Crescent, 8% of the Moon is Illuminated
Today
Waxing Crescent
Sep 2
First Quarter
Sep 8
Full
Sep 15
Last Quarter
Sep 24
New

Today's Extremes

State Highs State Lows

Community

WunderPhotos

Upload Photos

1,747,929 photos uploaded!

Nearby

Snow Depth

Station Depth Elevation
No new snow has been reported.

Earthquake Activity

City Distance Mag. Time & Date
Stillwater, Oklahoma 102 miles 3.1 10:44 AM CDT
2014-08-27
Guthrie, Oklahoma 93 miles 3.2 11:05 AM CDT
2014-08-26
Perry, Oklahoma 118 miles 2.5 8:07 AM CDT
2014-08-26
Perry, Oklahoma 107 miles 3.2 4:41 PM CDT
2014-08-25
Minimum magnitude displayed is 2.5.

Coastal Water Temperatures

Place Temperature
No Stations Reporting

Nearby Weather Stations